sensor_id;sensor_type;location;lat;lon;timestamp;pressure;altitude;pressure_sealevel;temperature;humidity
73516;BME280;61763;51.416;5.442;2022-08-19T00:00:09;101246.13;;;15.97;100.00
73516;BME280;61763;51.416;5.442;2022-08-19T00:02:36;101247.97;;;15.97;100.00
73516;BME280;61763;51.416;5.442;2022-08-19T00:05:02;101240.13;;;15.92;100.00
73516;BME280;61763;51.416;5.442;2022-08-19T00:07:28;101246.53;;;15.91;100.00
73516;BME280;61763;51.416;5.442;2022-08-19T00:09:54;101251.09;;;15.90;100.00
73516;BME280;61763;51.416;5.442;2022-08-19T00:12:19;101244.88;;;15.88;100.00
73516;BME280;61763;51.416;5.442;2022-08-19T00:14:45;101242.16;;;15.88;100.00
73516;BME280;61763;51.416;5.442;2022-08-19T00:17:11;101244.13;;;15.86;100.00
73516;BME280;61763;51.416;5.442;2022-08-19T00:19:38;101247.16;;;15.82;100.00
73516;BME280;61763;51.416;5.442;2022-08-19T00:22:03;101247.34;;;15.79;100.00
73516;BME280;61763;51.416;5.442;2022-08-19T00:24:30;101249.47;;;15.73;100.00
73516;BME280;61763;51.416;5.442;2022-08-19T00:26:57;101259.69;;;15.70;100.00
73516;BME280;61763;51.416;5.442;2022-08-19T00:29:24;101245.28;;;15.68;100.00
73516;BME280;61763;51.416;5.442;2022-08-19T00:31:51;101254.53;;;15.65;100.00
73516;BME280;61763;51.416;5.442;2022-08-19T00:34:22;101261.06;;;15.63;100.00
73516;BME280;61763;51.416;5.442;2022-08-19T00:36:48;101253.09;;;15.59;100.00
73516;BME280;61763;51.416;5.442;2022-08-19T00:39:15;101252.41;;;15.56;100.00
73516;BME280;61763;51.416;5.442;2022-08-19T00:41:42;101247.16;;;15.53;100.00
73516;BME280;61763;51.416;5.442;2022-08-19T00:44:14;101249.78;;;15.54;100.00
73516;BME280;61763;51.416;5.442;2022-08-19T00:46:43;101249.78;;;15.54;100.00
73516;BME280;61763;51.416;5.442;2022-08-19T00:49:30;101249.78;;;15.54;100.00
73516;BME280;61763;51.416;5.442;2022-08-19T00:52:03;101254.34;;;15.54;100.00
73516;BME280;61763;51.416;5.442;2022-08-19T00:54:30;101259.13;;;15.50;100.00
73516;BME280;61763;51.416;5.442;2022-08-19T00:56:57;101256.78;;;15.44;100.00
73516;BME280;61763;51.416;5.442;2022-08-19T00:59:23;101263.31;;;15.41;100.00
73516;BME280;61763;51.416;5.442;2022-08-19T01:01:49;101257.19;;;15.38;100.00
73516;BME280;61763;51.416;5.442;2022-08-19T01:04:14;101247.38;;;15.35;100.00
73516;BME280;61763;51.416;5.442;2022-08-19T01:06:40;101257.50;;;15.33;100.00
73516;BME280;61763;51.416;5.442;2022-08-19T01:09:07;101251.75;;;15.38;100.00
73516;BME280;61763;51.416;5.442;2022-08-19T01:11:38;101251.66;;;15.39;100.00
73516;BME280;61763;51.416;5.442;2022-08-19T01:14:05;101257.19;;;15.38;100.00
73516;BME280;61763;51.416;5.442;2022-08-19T01:16:32;101258.06;;;15.38;100.00
73516;BME280;61763;51.416;5.442;2022-08-19T01:18:59;101243.69;;;15.36;100.00
73516;BME280;61763;51.416;5.442;2022-08-19T01:21:35;101240.09;;;15.36;100.00
73516;BME280;61763;51.416;5.442;2022-08-19T01:24:04;101238.53;;;15.46;100.00
73516;BME280;61763;51.416;5.442;2022-08-19T01:26:29;101243.09;;;15.46;100.00
73516;BME280;61763;51.416;5.442;2022-08-19T01:28:57;101238.75;;;15.43;100.00
73516;BME280;61763;51.416;5.442;2022-08-19T01:31:25;101249.31;;;15.48;100.00
73516;BME280;61763;51.416;5.442;2022-08-19T01:33:52;101243.09;;;15.46;100.00
73516;BME280;61763;51.416;5.442;2022-08-19T01:36:25;101241.94;;;15.50;100.00
73516;BME280;61763;51.416;5.442;2022-08-19T01:38:51;101246.41;;;15.51;100.00
73516;BME280;61763;51.416;5.442;2022-08-19T01:41:17;101249.00;;;15.67;100.00
73516;BME280;61763;51.416;5.442;2022-08-19T01:43:44;101255.00;;;15.72;100.00
73516;BME280;61763;51.416;5.442;2022-08-19T01:46:09;101245.00;;;15.72;100.00
73516;BME280;61763;51.416;5.442;2022-08-19T01:48:41;101249.66;;;15.70;100.00
73516;BME280;61763;51.416;5.442;2022-08-19T01:51:08;101248.41;;;15.62;100.00
73516;BME280;61763;51.416;5.442;2022-08-19T01:53:35;101246.75;;;15.59;100.00
73516;BME280;61763;51.416;5.442;2022-08-19T01:56:01;101247.97;;;15.55;100.00
73516;BME280;61763;51.416;5.442;2022-08-19T01:58:32;101251.94;;;15.49;100.00
73516;BME280;61763;51.416;5.442;2022-08-19T02:00:58;101256.69;;;15.46;100.00
73516;BME280;61763;51.416;5.442;2022-08-19T02:03:24;101266.91;;;15.42;100.00
73516;BME280;61763;51.416;5.442;2022-08-19T02:06:00;101259.81;;;15.39;100.00
73516;BME280;61763;51.416;5.442;2022-08-19T02:08:28;101259.91;;;15.38;100.00
73516;BME280;61763;51.416;5.442;2022-08-19T02:10:54;101270.50;;;15.42;100.00
73516;BME280;61763;51.416;5.442;2022-08-19T02:13:19;101274.09;;;15.43;100.00
73516;BME280;61763;51.416;5.442;2022-08-19T02:15:45;101267.88;;;15.41;100.00
73516;BME280;61763;51.416;5.442;2022-08-19T02:18:11;101274.19;;;15.41;100.00
73516;BME280;61763;51.416;5.442;2022-08-19T02:20:38;101261.88;;;15.36;100.00
73516;BME280;61763;51.416;5.442;2022-08-19T02:23:05;101274.00;;;15.30;100.00
73516;BME280;61763;51.416;5.442;2022-08-19T02:25:31;101280.69;;;15.24;100.00
73516;BME280;61763;51.416;5.442;2022-08-19T02:27:56;101279.94;;;15.22;100.00
73516;BME280;61763;51.416;5.442;2022-08-19T02:30:22;101282.91;;;15.18;100.00
73516;BME280;61763;51.416;5.442;2022-08-19T02:32:48;101271.47;;;15.13;100.00
73516;BME280;61763;51.416;5.442;2022-08-19T02:35:13;101282.53;;;15.10;100.00
73516;BME280;61763;51.416;5.442;2022-08-19T02:37:40;101278.97;;;15.09;100.00
73516;BME280;61763;51.416;5.442;2022-08-19T02:40:24;101281.94;;;15.04;100.00
73516;BME280;61763;51.416;5.442;2022-08-19T02:42:50;101284.66;;;15.04;100.00
73516;BME280;61763;51.416;5.442;2022-08-19T02:45:15;101288.84;;;15.10;100.00
73516;BME280;61763;51.416;5.442;2022-08-19T02:47:41;101286.22;;;15.09;100.00
73516;BME280;61763;51.416;5.442;2022-08-19T02:50:07;101288.16;;;15.06;100.00
73516;BME280;61763;51.416;5.442;2022-08-19T02:52:34;101289.22;;;15.04;100.00
73516;BME280;61763;51.416;5.442;2022-08-19T02:54:59;101285.34;;;15.08;100.00
73516;BME280;61763;51.416;5.442;2022-08-19T02:57:26;101286.72;;;15.15;100.00
73516;BME280;61763;51.416;5.442;2022-08-19T02:59:52;101277.66;;;15.15;100.00
73516;BME280;61763;51.416;5.442;2022-08-19T03:02:17;101280.38;;;15.15;100.00
73516;BME280;61763;51.416;5.442;2022-08-19T03:04:42;101275.84;;;15.15;100.00
73516;BME280;61763;51.416;5.442;2022-08-19T03:07:09;101277.19;;;15.08;100.00
73516;BME280;61763;51.416;5.442;2022-08-19T03:09:37;101282.72;;;15.06;100.00
73516;BME280;61763;51.416;5.442;2022-08-19T03:12:04;101286.03;;;15.12;100.00
73516;BME280;61763;51.416;5.442;2022-08-19T03:14:31;101293.81;;;15.03;100.00
73516;BME280;61763;51.416;5.442;2022-08-19T03:16:57;101298.66;;;15.13;100.00
73516;BME280;61763;51.416;5.442;2022-08-19T03:19:23;101287.28;;;15.06;100.00
73516;BME280;61763;51.416;5.442;2022-08-19T03:21:49;101293.81;;;15.03;100.00
73516;BME280;61763;51.416;5.442;2022-08-19T03:24:15;101281.00;;;15.20;100.00
73516;BME280;61763;51.416;5.442;2022-08-19T03:26:45;101287.59;;;15.16;100.00
73516;BME280;61763;51.416;5.442;2022-08-19T03:29:11;101285.16;;;15.11;100.00
73516;BME280;61763;51.416;5.442;2022-08-19T03:31:38;101288.38;;;15.03;100.00
73516;BME280;61763;51.416;5.442;2022-08-19T03:34:04;101292.81;;;15.04;100.00
73516;BME280;61763;51.416;5.442;2022-08-19T03:36:30;101288.16;;;15.06;100.00
73516;BME280;61763;51.416;5.442;2022-08-19T03:38:58;101276.25;;;15.09;100.00
73516;BME280;61763;51.416;5.442;2022-08-19T03:41:30;101271.88;;;15.06;100.00
73516;BME280;61763;51.416;5.442;2022-08-19T03:43:56;101270.50;;;14.99;100.00
73516;BME280;61763;51.416;5.442;2022-08-19T03:46:27;101275.22;;;14.96;100.00
73516;BME280;61763;51.416;5.442;2022-08-19T03:48:55;101269.22;;;14.91;100.00
73516;BME280;61763;51.416;5.442;2022-08-19T03:51:25;101272.13;;;14.87;100.00
73516;BME280;61763;51.416;5.442;2022-08-19T03:53:53;101273.19;;;14.85;100.00
73516;BME280;61763;51.416;5.442;2022-08-19T03:56:19;101272.59;;;14.94;100.00
73516;BME280;61763;51.416;5.442;2022-08-19T03:58:45;101287.84;;;14.97;100.00
73516;BME280;61763;51.416;5.442;2022-08-19T04:01:15;101281.06;;;15.04;100.00
73516;BME280;61763;51.416;5.442;2022-08-19T04:03:41;101280.00;;;15.06;100.00
73516;BME280;61763;51.416;5.442;2022-08-19T04:06:30;101278.56;;;15.01;100.00
73516;BME280;61763;51.416;5.442;2022-08-19T04:08:58;101283.13;;;15.00;100.00
73516;BME280;61763;51.416;5.442;2022-08-19T04:11:27;101280.00;;;14.92;100.00
73516;BME280;61763;51.416;5.442;2022-08-19T04:13:53;101279.41;;;14.87;100.00
73516;BME280;61763;51.416;5.442;2022-08-19T04:16:20;101282.59;;;14.79;100.00
73516;BME280;61763;51.416;5.442;2022-08-19T04:18:47;101274.91;;;14.71;100.00
73516;BME280;61763;51.416;5.442;2022-08-19T04:21:22;101278.09;;;14.64;100.00
73516;BME280;61763;51.416;5.442;2022-08-19T04:23:48;101281.88;;;14.61;100.00
73516;BME280;61763;51.416;5.442;2022-08-19T04:26:19;101278.19;;;14.62;100.00
73516;BME280;61763;51.416;5.442;2022-08-19T04:28:46;101269.16;;;14.62;100.00
73516;BME280;61763;51.416;5.442;2022-08-19T04:31:16;101272.19;;;14.71;100.00
73516;BME280;61763;51.416;5.442;2022-08-19T04:33:42;101278.50;;;14.72;100.00
73516;BME280;61763;51.416;5.442;2022-08-19T04:36:15;101270.25;;;14.74;100.00
73516;BME280;61763;51.416;5.442;2022-08-19T04:38:41;101278.50;;;14.72;100.00
73516;BME280;61763;51.416;5.442;2022-08-19T04:41:06;101280.44;;;14.70;100.00
73516;BME280;61763;51.416;5.442;2022-08-19T04:43:50;101271.22;;;14.73;100.00
73516;BME280;61763;51.416;5.442;2022-08-19T04:46:16;101274.91;;;14.71;100.00
73516;BME280;61763;51.416;5.442;2022-08-19T04:48:42;101272.00;;;14.75;100.00
73516;BME280;61763;51.416;5.442;2022-08-19T04:51:10;101274.81;;;14.73;100.00
73516;BME280;61763;51.416;5.442;2022-08-19T04:53:39;101275.66;;;14.74;100.00
73516;BME280;61763;51.416;5.442;2022-08-19T04:56:13;101282.59;;;14.79;100.00
73516;BME280;61763;51.416;5.442;2022-08-19T04:58:39;101289.69;;;14.82;100.00
73516;BME280;61763;51.416;5.442;2022-08-19T05:01:06;101288.72;;;14.83;100.00
73516;BME280;61763;51.416;5.442;2022-08-19T05:03:34;101291.25;;;14.86;100.00
73516;BME280;61763;51.416;5.442;2022-08-19T05:06:11;101296.53;;;15.03;100.00
73516;BME280;61763;51.416;5.442;2022-08-19T05:08:37;101296.09;;;14.95;100.00
73516;BME280;61763;51.416;5.442;2022-08-19T05:11:21;101296.00;;;14.97;100.00
73516;BME280;61763;51.416;5.442;2022-08-19T05:13:47;101302.41;;;14.96;100.00
73516;BME280;61763;51.416;5.442;2022-08-19T05:16:19;101306.88;;;14.97;100.00
73516;BME280;61763;51.416;5.442;2022-08-19T05:18:46;101310.41;;;14.99;100.00
73516;BME280;61763;51.416;5.442;2022-08-19T05:21:31;101316.41;;;15.04;100.00
73516;BME280;61763;51.416;5.442;2022-08-19T05:24:16;101320.69;;;15.08;100.00
73516;BME280;61763;51.416;5.442;2022-08-19T05:26:44;101321.88;;;15.18;100.00
73516;BME280;61763;51.416;5.442;2022-08-19T05:29:18;101329.53;;;15.26;100.00
73516;BME280;61763;51.416;5.442;2022-08-19T05:31:45;101331.69;;;15.35;100.00
73516;BME280;61763;51.416;5.442;2022-08-19T05:34:11;101343.91;;;15.42;100.00
73516;BME280;61763;51.416;5.442;2022-08-19T05:36:40;101338.19;;;15.62;100.00
73516;BME280;61763;51.416;5.442;2022-08-19T05:39:07;101338.78;;;15.52;100.00
73516;BME280;61763;51.416;5.442;2022-08-19T05:41:33;101340.50;;;15.68;100.00
73516;BME280;61763;51.416;5.442;2022-08-19T05:44:01;101339.66;;;15.67;100.00
73516;BME280;61763;51.416;5.442;2022-08-19T05:46:27;101346.19;;;15.79;100.00
73516;BME280;61763;51.416;5.442;2022-08-19T05:48:53;101344.06;;;15.84;100.00
73516;BME280;61763;51.416;5.442;2022-08-19T05:51:22;101347.22;;;15.91;100.00
73516;BME280;61763;51.416;5.442;2022-08-19T05:53:48;101337.22;;;15.91;100.00
73516;BME280;61763;51.416;5.442;2022-08-19T05:56:15;101331.75;;;16.06;100.00
73516;BME280;61763;51.416;5.442;2022-08-19T05:58:42;101328.53;;;16.14;100.00
73516;BME280;61763;51.416;5.442;2022-08-19T06:01:11;101335.03;;;16.25;100.00
73516;BME280;61763;51.416;5.442;2022-08-19T06:03:37;101333.13;;;16.40;100.00
73516;BME280;61763;51.416;5.442;2022-08-19T06:06:05;101328.25;;;16.58;99.49
73516;BME280;61763;51.416;5.442;2022-08-19T06:08:32;101316.84;;;16.66;97.95
73516;BME280;61763;51.416;5.442;2022-08-19T06:11:15;101319.34;;;16.69;98.64
73516;BME280;61763;51.416;5.442;2022-08-19T06:13:42;101319.81;;;16.76;97.66
73516;BME280;61763;51.416;5.442;2022-08-19T06:16:08;101318.91;;;16.75;96.60
73516;BME280;61763;51.416;5.442;2022-08-19T06:18:34;101322.09;;;16.82;97.09
73516;BME280;61763;51.416;5.442;2022-08-19T06:20:59;101315.81;;;16.94;95.46
73516;BME280;61763;51.416;5.442;2022-08-19T06:23:29;101323.38;;;17.16;93.89
73516;BME280;61763;51.416;5.442;2022-08-19T06:25:55;101323.69;;;17.25;93.45
73516;BME280;61763;51.416;5.442;2022-08-19T06:28:20;101317.16;;;17.40;92.30
73516;BME280;61763;51.416;5.442;2022-08-19T06:30:47;101314.34;;;17.42;91.50
73516;BME280;61763;51.416;5.442;2022-08-19T06:33:12;101308.19;;;17.51;90.51
73516;BME280;61763;51.416;5.442;2022-08-19T06:35:39;101318.56;;;17.59;90.22
73516;BME280;61763;51.416;5.442;2022-08-19T06:38:05;101319.63;;;17.69;90.07
73516;BME280;61763;51.416;5.442;2022-08-19T06:40:30;101316.91;;;17.69;90.09
73516;BME280;61763;51.416;5.442;2022-08-19T06:42:55;101325.06;;;17.82;89.02
73516;BME280;61763;51.416;5.442;2022-08-19T06:45:23;101324.53;;;17.90;89.70
73516;BME280;61763;51.416;5.442;2022-08-19T06:47:48;101317.63;;;17.97;89.86
73516;BME280;61763;51.416;5.442;2022-08-19T06:50:13;101312.72;;;18.26;89.39
73516;BME280;61763;51.416;5.442;2022-08-19T06:52:39;101315.75;;;18.34;88.54
73516;BME280;61763;51.416;5.442;2022-08-19T06:55:05;101322.66;;;18.51;87.60
73516;BME280;61763;51.416;5.442;2022-08-19T06:57:30;101307.72;;;18.44;87.30
73516;BME280;61763;51.416;5.442;2022-08-19T06:59:58;101308.41;;;18.59;86.50
73516;BME280;61763;51.416;5.442;2022-08-19T07:02:25;101316.56;;;18.83;84.94
73516;BME280;61763;51.416;5.442;2022-08-19T07:04:51;101320.28;;;18.82;85.63
73516;BME280;61763;51.416;5.442;2022-08-19T07:07:17;101314.91;;;19.05;85.06
73516;BME280;61763;51.416;5.442;2022-08-19T07:09:44;101323.75;;;19.08;84.58
73516;BME280;61763;51.416;5.442;2022-08-19T07:12:12;101321.31;;;19.39;83.03
73516;BME280;61763;51.416;5.442;2022-08-19T07:14:41;101321.69;;;19.57;83.29
73516;BME280;61763;51.416;5.442;2022-08-19T07:17:09;101326.56;;;19.88;81.09
73516;BME280;61763;51.416;5.442;2022-08-19T07:19:36;101325.16;;;20.05;80.82
73516;BME280;61763;51.416;5.442;2022-08-19T07:22:03;101330.38;;;20.08;79.15
73516;BME280;61763;51.416;5.442;2022-08-19T07:24:29;101333.81;;;20.33;79.29
73516;BME280;61763;51.416;5.442;2022-08-19T07:26:58;101337.38;;;20.56;77.31
73516;BME280;61763;51.416;5.442;2022-08-19T07:29:26;101329.56;;;20.40;77.15
73516;BME280;61763;51.416;5.442;2022-08-19T07:31:52;101338.09;;;20.58;77.01
73516;BME280;61763;51.416;5.442;2022-08-19T07:34:22;101333.72;;;20.67;77.09
73516;BME280;61763;51.416;5.442;2022-08-19T07:36:47;101337.63;;;20.53;77.31
73516;BME280;61763;51.416;5.442;2022-08-19T07:39:22;101338.50;;;20.53;78.00
73516;BME280;61763;51.416;5.442;2022-08-19T07:41:48;101332.94;;;20.76;77.43
73516;BME280;61763;51.416;5.442;2022-08-19T07:44:15;101346.56;;;20.98;75.50
73516;BME280;61763;51.416;5.442;2022-08-19T07:46:45;101345.78;;;21.39;74.46
73516;BME280;61763;51.416;5.442;2022-08-19T07:49:12;101352.16;;;21.60;72.60
73516;BME280;61763;51.416;5.442;2022-08-19T07:51:43;101357.53;;;21.41;73.74
73516;BME280;61763;51.416;5.442;2022-08-19T07:54:09;101351.63;;;21.45;73.34
73516;BME280;61763;51.416;5.442;2022-08-19T07:56:35;101360.00;;;21.23;74.48
73516;BME280;61763;51.416;5.442;2022-08-19T07:59:00;101361.59;;;21.46;73.44
73516;BME280;61763;51.416;5.442;2022-08-19T08:01:26;101361.88;;;21.22;74.29
73516;BME280;61763;51.416;5.442;2022-08-19T08:03:53;101363.78;;;21.22;75.21
73516;BME280;61763;51.416;5.442;2022-08-19T08:06:37;101368.69;;;21.49;71.91
73516;BME280;61763;51.416;5.442;2022-08-19T08:09:31;101364.22;;;21.06;73.13
73516;BME280;61763;51.416;5.442;2022-08-19T08:12:01;101360.22;;;21.31;73.42
73516;BME280;61763;51.416;5.442;2022-08-19T08:14:36;101374.97;;;21.51;72.73
73516;BME280;61763;51.416;5.442;2022-08-19T08:17:04;101367.91;;;21.58;72.62
73516;BME280;61763;51.416;5.442;2022-08-19T08:19:30;101372.88;;;21.64;71.49
73516;BME280;61763;51.416;5.442;2022-08-19T08:21:59;101378.88;;;21.58;73.43
73516;BME280;61763;51.416;5.442;2022-08-19T08:24:27;101373.22;;;21.81;71.05
73516;BME280;61763;51.416;5.442;2022-08-19T08:26:53;101381.97;;;21.65;71.53
73516;BME280;61763;51.416;5.442;2022-08-19T08:29:19;101376.28;;;21.87;71.13
73516;BME280;61763;51.416;5.442;2022-08-19T08:31:45;101375.81;;;21.51;70.68
73516;BME280;61763;51.416;5.442;2022-08-19T08:34:12;101382.66;;;21.57;70.64
73516;BME280;61763;51.416;5.442;2022-08-19T08:36:44;101385.81;;;21.52;71.00
73516;BME280;61763;51.416;5.442;2022-08-19T08:39:12;101403.22;;;21.63;70.70
73516;BME280;61763;51.416;5.442;2022-08-19T08:41:58;101402.56;;;21.80;70.59
73516;BME280;61763;51.416;5.442;2022-08-19T08:47:03;101403.38;;;22.02;69.89
73516;BME280;61763;51.416;5.442;2022-08-19T08:49:54;101401.00;;;21.87;70.52
73516;BME280;61763;51.416;5.442;2022-08-19T08:52:24;101394.72;;;22.07;69.35
73516;BME280;61763;51.416;5.442;2022-08-19T08:54:53;101383.75;;;22.57;65.85
73516;BME280;61763;51.416;5.442;2022-08-19T08:57:27;101389.25;;;22.57;65.45
73516;BME280;61763;51.416;5.442;2022-08-19T08:59:54;101390.03;;;22.28;66.67
73516;BME280;61763;51.416;5.442;2022-08-19T09:02:21;101384.75;;;22.66;66.11
73516;BME280;61763;51.416;5.442;2022-08-19T09:04:46;101381.88;;;22.17;67.55
73516;BME280;61763;51.416;5.442;2022-08-19T09:09:45;101383.53;;;22.29;67.51
73516;BME280;61763;51.416;5.442;2022-08-19T09:12:37;101397.13;;;22.31;67.33
73516;BME280;61763;51.416;5.442;2022-08-19T09:15:07;101398.94;;;22.11;67.79
73516;BME280;61763;51.416;5.442;2022-08-19T09:17:35;101400.31;;;22.26;67.38
73516;BME280;61763;51.416;5.442;2022-08-19T09:20:02;101393.03;;;22.75;66.07
73516;BME280;61763;51.416;5.442;2022-08-19T09:22:30;101402.13;;;22.47;66.80
73516;BME280;61763;51.416;5.442;2022-08-19T09:24:55;101404.72;;;22.48;66.88
73516;BME280;61763;51.416;5.442;2022-08-19T09:27:22;101404.41;;;22.42;66.83
73516;BME280;61763;51.416;5.442;2022-08-19T09:29:52;101409.16;;;21.99;67.61
73516;BME280;61763;51.416;5.442;2022-08-19T09:32:19;101402.28;;;22.14;68.31
73516;BME280;61763;51.416;5.442;2022-08-19T09:34:44;101410.38;;;22.56;67.63
73516;BME280;61763;51.416;5.442;2022-08-19T09:37:10;101404.59;;;22.69;66.38
73516;BME280;61763;51.416;5.442;2022-08-19T09:39:37;101406.50;;;22.79;65.44
73516;BME280;61763;51.416;5.442;2022-08-19T09:42:02;101413.56;;;22.21;67.88
73516;BME280;61763;51.416;5.442;2022-08-19T09:44:28;101414.78;;;21.97;67.83
73516;BME280;61763;51.416;5.442;2022-08-19T09:46:54;101410.25;;;21.56;69.72
73516;BME280;61763;51.416;5.442;2022-08-19T09:49:20;101416.78;;;21.43;70.85
73516;BME280;61763;51.416;5.442;2022-08-19T09:51:52;101418.06;;;21.60;69.49
73516;BME280;61763;51.416;5.442;2022-08-19T09:54:21;101416.91;;;21.84;68.65
73516;BME280;61763;51.416;5.442;2022-08-19T09:56:48;101423.47;;;21.93;68.35
73516;BME280;61763;51.416;5.442;2022-08-19T09:59:13;101423.09;;;22.07;67.91
73516;BME280;61763;51.416;5.442;2022-08-19T10:01:39;101412.81;;;22.09;68.20
73516;BME280;61763;51.416;5.442;2022-08-19T10:04:04;101418.03;;;21.81;68.67
73516;BME280;61763;51.416;5.442;2022-08-19T10:06:34;101420.88;;;22.01;68.83
73516;BME280;61763;51.416;5.442;2022-08-19T10:09:00;101427.69;;;21.76;68.96
73516;BME280;61763;51.416;5.442;2022-08-19T10:11:27;101426.84;;;21.75;69.27
73516;BME280;61763;51.416;5.442;2022-08-19T10:13:54;101421.13;;;21.88;69.65
73516;BME280;61763;51.416;5.442;2022-08-19T10:16:22;101418.09;;;21.91;69.52
73516;BME280;61763;51.416;5.442;2022-08-19T10:18:48;101412.81;;;22.09;68.67
73516;BME280;61763;51.416;5.442;2022-08-19T10:21:17;101414.88;;;22.57;67.48
73516;BME280;61763;51.416;5.442;2022-08-19T10:23:45;101416.59;;;22.49;66.90
73516;BME280;61763;51.416;5.442;2022-08-19T10:26:13;101417.13;;;22.33;66.55
73516;BME280;61763;51.416;5.442;2022-08-19T10:28:39;101416.91;;;22.15;67.93
73516;BME280;61763;51.416;5.442;2022-08-19T10:31:11;101421.44;;;21.95;67.72
73516;BME280;61763;51.416;5.442;2022-08-19T10:33:38;101421.63;;;22.03;68.20
73516;BME280;61763;51.416;5.442;2022-08-19T10:36:07;101428.31;;;22.10;67.56
73516;BME280;61763;51.416;5.442;2022-08-19T10:38:33;101418.78;;;22.24;67.20
73516;BME280;61763;51.416;5.442;2022-08-19T10:41:07;101420.09;;;21.89;68.15
73516;BME280;61763;51.416;5.442;2022-08-19T10:43:32;101421.19;;;21.77;69.17
73516;BME280;61763;51.416;5.442;2022-08-19T10:46:02;101412.97;;;21.77;69.86
73516;BME280;61763;51.416;5.442;2022-08-19T10:48:28;101413.03;;;21.86;68.68
73516;BME280;61763;51.416;5.442;2022-08-19T10:50:54;101410.25;;;22.17;67.69
73516;BME280;61763;51.416;5.442;2022-08-19T10:53:38;101408.75;;;22.44;65.89
73516;BME280;61763;51.416;5.442;2022-08-19T10:56:03;101410.50;;;22.55;67.10
73516;BME280;61763;51.416;5.442;2022-08-19T10:58:47;101402.56;;;22.52;66.11
73516;BME280;61763;51.416;5.442;2022-08-19T11:01:13;101405.16;;;22.73;65.49
73516;BME280;61763;51.416;5.442;2022-08-19T11:03:38;101405.06;;;22.94;64.23
73516;BME280;61763;51.416;5.442;2022-08-19T11:06:07;101395.81;;;23.15;63.20
73516;BME280;61763;51.416;5.442;2022-08-19T11:08:34;101399.69;;;23.51;62.07
73516;BME280;61763;51.416;5.442;2022-08-19T11:11:02;101392.31;;;23.89;60.79
73516;BME280;61763;51.416;5.442;2022-08-19T11:13:33;101399.41;;;23.92;61.14
73516;BME280;61763;51.416;5.442;2022-08-19T11:16:06;101387.78;;;23.98;61.13
73516;BME280;61763;51.416;5.442;2022-08-19T11:18:34;101391.16;;;24.20;60.66
73516;BME280;61763;51.416;5.442;2022-08-19T11:21:13;101393.56;;;24.78;58.71
73516;BME280;61763;51.416;5.442;2022-08-19T11:23:42;101391.34;;;25.18;58.70
73516;BME280;61763;51.416;5.442;2022-08-19T11:26:09;101394.53;;;25.49;57.92
73516;BME280;61763;51.416;5.442;2022-08-19T11:28:35;101385.84;;;25.70;55.70
73516;BME280;61763;51.416;5.442;2022-08-19T11:31:01;101385.97;;;26.21;54.49
73516;BME280;61763;51.416;5.442;2022-08-19T11:33:29;101378.09;;;26.51;52.90
73516;BME280;61763;51.416;5.442;2022-08-19T11:35:58;101379.94;;;25.92;54.53
73516;BME280;61763;51.416;5.442;2022-08-19T11:38:24;101370.50;;;26.02;53.79
73516;BME280;61763;51.416;5.442;2022-08-19T11:40:58;101381.88;;;25.02;57.18
73516;BME280;61763;51.416;5.442;2022-08-19T11:43:24;101382.75;;;24.85;56.63
73516;BME280;61763;51.416;5.442;2022-08-19T11:45:51;101372.44;;;25.49;55.27
73516;BME280;61763;51.416;5.442;2022-08-19T11:48:17;101381.47;;;25.15;56.19
73516;BME280;61763;51.416;5.442;2022-08-19T11:50:51;101376.88;;;25.68;54.76
73516;BME280;61763;51.416;5.442;2022-08-19T11:53:18;101374.53;;;25.11;56.01
73516;BME280;61763;51.416;5.442;2022-08-19T11:55:46;101373.78;;;24.83;56.26
73516;BME280;61763;51.416;5.442;2022-08-19T11:58:13;101372.09;;;25.08;55.82
73516;BME280;61763;51.416;5.442;2022-08-19T12:00:39;101379.41;;;25.17;56.49
73516;BME280;61763;51.416;5.442;2022-08-19T12:03:05;101378.97;;;25.04;56.65
73516;BME280;61763;51.416;5.442;2022-08-19T12:05:31;101382.91;;;25.19;57.51
73516;BME280;61763;51.416;5.442;2022-08-19T12:07:56;101387.50;;;24.93;57.28
73516;BME280;61763;51.416;5.442;2022-08-19T12:10:22;101384.59;;;24.94;57.16
73516;BME280;61763;51.416;5.442;2022-08-19T12:12:48;101383.47;;;25.49;56.67
73516;BME280;61763;51.416;5.442;2022-08-19T12:15:14;101387.75;;;25.70;56.45
73516;BME280;61763;51.416;5.442;2022-08-19T12:17:40;101390.19;;;25.99;55.16
73516;BME280;61763;51.416;5.442;2022-08-19T12:20:07;101393.88;;;25.82;54.08
73516;BME280;61763;51.416;5.442;2022-08-19T12:22:34;101397.34;;;24.95;57.06
73516;BME280;61763;51.416;5.442;2022-08-19T12:25:00;101391.34;;;24.82;57.12
73516;BME280;61763;51.416;5.442;2022-08-19T12:27:26;101379.13;;;25.21;57.06
73516;BME280;61763;51.416;5.442;2022-08-19T12:29:51;101378.63;;;25.25;56.59
73516;BME280;61763;51.416;5.442;2022-08-19T12:32:17;101381.38;;;25.25;56.82
73516;BME280;61763;51.416;5.442;2022-08-19T12:34:42;101381.31;;;24.63;58.14
73516;BME280;61763;51.416;5.442;2022-08-19T12:37:08;101375.50;;;24.66;58.52
73516;BME280;61763;51.416;5.442;2022-08-19T12:39:35;101383.22;;;24.80;59.44
73516;BME280;61763;51.416;5.442;2022-08-19T12:42:00;101374.38;;;25.13;58.24
73516;BME280;61763;51.416;5.442;2022-08-19T12:44:26;101372.22;;;25.25;58.02
73516;BME280;61763;51.416;5.442;2022-08-19T12:46:51;101372.81;;;24.92;58.83
73516;BME280;61763;51.416;5.442;2022-08-19T12:49:16;101372.72;;;25.20;58.46
73516;BME280;61763;51.416;5.442;2022-08-19T12:51:42;101376.03;;;25.24;58.52
73516;BME280;61763;51.416;5.442;2022-08-19T12:54:07;101374.13;;;25.24;57.43